Pays
Station

 

Conditions  météo  pour  Chrysoupoli Airport  -  Grèce    Grèce

  
6 °C
    
 
 

METAR pour Chrysoupoli Airport :

LGKV 191220Z 00000KT 9999 FEW010 BKN025 BKN060 06/01 Q1023

 

Voici le bulletin pour Chrysoupoli Airport - Grèce.
 
Le bulletin a été fait il y a 9 minutes, à 12:20 UTC .
Le vent était calme.
 
La température était de 6 °C, avec un point de rosée à 1 °C.
La pression atmosphérique était de 1023 hPa.
L'humidité relative était de 70.2%.
 
Il y avait 1 à 2/8ème de nébulosité à une hauteur de 305 mètres, 5 à 7/8ème de nébulosité à une hauteur de 762 mètres et 5 à 7/8ème de nébulosité à une hauteur de 1829 mètres.
 
La visibilité globale était de supérieure à 10 kilomètres.
 

 
 
 

Pays :   A   B   C   D   E   F   G   H   I   J   K   L   M   N   O   P   Q   R   S   T   U   V   W   Y   Z

 

Partenaires :  Info Météo avec Met'info
Météo Marine avec MeteoMarine.net
Infos Site  |  Infos Légales  |  Crédits  |  Confidentialité
Contactez-nous  |  Ajouter aux favoris
© 2013-2018 METAR - Tous droits réservés